sensor_id;sensor_type;location;lat;lon;timestamp;pressure;altitude;pressure_sealevel;temperature;humidity
12178;BME280;6152;48.728;9.256;2024-01-10T00:00:02;97847.72;;;-4.84;100.00
12178;BME280;6152;48.728;9.256;2024-01-10T00:02:29;97855.34;;;-4.84;100.00
12178;BME280;6152;48.728;9.256;2024-01-10T00:04:55;97844.34;;;-4.84;100.00
12178;BME280;6152;48.728;9.256;2024-01-10T00:07:21;97840.97;;;-4.83;100.00
12178;BME280;6152;48.728;9.256;2024-01-10T00:09:47;97848.59;;;-4.82;100.00
12178;BME280;6152;48.728;9.256;2024-01-10T00:12:13;97838.44;;;-4.83;100.00
12178;BME280;6152;48.728;9.256;2024-01-10T00:14:39;97838.44;;;-4.83;100.00
12178;BME280;6152;48.728;9.256;2024-01-10T00:17:05;97850.28;;;-4.84;100.00
12178;BME280;6152;48.728;9.256;2024-01-10T00:19:31;97847.72;;;-4.84;100.00
12178;BME280;6152;48.728;9.256;2024-01-10T00:21:57;97848.59;;;-4.83;100.00
12178;BME280;6152;48.728;9.256;2024-01-10T00:24:24;97843.47;;;-4.85;100.00
12178;BME280;6152;48.728;9.256;2024-01-10T00:26:50;97833.31;;;-4.85;100.00
12178;BME280;6152;48.728;9.256;2024-01-10T00:29:16;97834.16;;;-4.86;100.00
12178;BME280;6152;48.728;9.256;2024-01-10T00:31:42;97839.22;;;-4.87;100.00
12178;BME280;6152;48.728;9.256;2024-01-10T00:34:08;97836.66;;;-4.89;100.00
12178;BME280;6152;48.728;9.256;2024-01-10T00:36:34;97833.28;;;-4.91;100.00
12178;BME280;6152;48.728;9.256;2024-01-10T00:39:00;97842.56;;;-4.91;100.00
12178;BME280;6152;48.728;9.256;2024-01-10T00:41:27;97840.88;;;-4.91;100.00
12178;BME280;6152;48.728;9.256;2024-01-10T00:43:53;97833.28;;;-4.91;100.00
12178;BME280;6152;48.728;9.256;2024-01-10T00:46:19;97826.47;;;-4.92;100.00
12178;BME280;6152;48.728;9.256;2024-01-10T00:48:45;97834.09;;;-4.92;100.00
12178;BME280;6152;48.728;9.256;2024-01-10T00:51:12;97832.38;;;-4.93;100.00
12178;BME280;6152;48.728;9.256;2024-01-10T00:53:38;97828.16;;;-4.94;100.00
12178;BME280;6152;48.728;9.256;2024-01-10T00:56:05;97827.28;;;-4.96;100.00
12178;BME280;6152;48.728;9.256;2024-01-10T00:58:31;97831.53;;;-4.95;100.00
12178;BME280;6152;48.728;9.256;2024-01-10T01:00:57;97828.94;;;-4.96;100.00
12178;BME280;6152;48.728;9.256;2024-01-10T01:03:23;97828.13;;;-4.97;100.00
12178;BME280;6152;48.728;9.256;2024-01-10T01:05:49;97831.50;;;-4.98;100.00
12178;BME280;6152;48.728;9.256;2024-01-10T01:08:15;97830.66;;;-4.97;100.00
12178;BME280;6152;48.728;9.256;2024-01-10T01:10:41;97837.44;;;-4.97;100.00
12178;BME280;6152;48.728;9.256;2024-01-10T01:13:07;97831.50;;;-4.98;100.00
12178;BME280;6152;48.728;9.256;2024-01-10T01:15:34;97839.94;;;-4.99;100.00
12178;BME280;6152;48.728;9.256;2024-01-10T01:18:00;97840.78;;;-4.98;100.00
12178;BME280;6152;48.728;9.256;2024-01-10T01:20:26;97839.94;;;-4.99;100.00
12178;BME280;6152;48.728;9.256;2024-01-10T01:22:52;97832.38;;;-4.94;100.00
12178;BME280;6152;48.728;9.256;2024-01-10T01:25:18;97845.00;;;-4.99;100.00
12178;BME280;6152;48.728;9.256;2024-01-10T01:27:45;97842.50;;;-4.97;100.00
12178;BME280;6152;48.728;9.256;2024-01-10T01:30:11;97841.53;;;-5.05;100.00
12178;BME280;6152;48.728;9.256;2024-01-10T01:32:37;97848.34;;;-5.04;100.00
12178;BME280;6152;48.728;9.256;2024-01-10T01:35:04;97838.19;;;-5.03;100.00
12178;BME280;6152;48.728;9.256;2024-01-10T01:37:30;97843.31;;;-5.00;100.00
12178;BME280;6152;48.728;9.256;2024-01-10T01:39:56;97844.19;;;-4.96;100.00
12178;BME280;6152;48.728;9.256;2024-01-10T01:42:23;97838.31;;;-4.92;100.00
12178;BME280;6152;48.728;9.256;2024-01-10T01:44:49;97840.91;;;-4.88;100.00
12178;BME280;6152;48.728;9.256;2024-01-10T01:47:15;97841.75;;;-4.86;100.00
12178;BME280;6152;48.728;9.256;2024-01-10T01:49:42;97836.72;;;-4.84;100.00
12178;BME280;6152;48.728;9.256;2024-01-10T01:52:10;97831.72;;;-4.80;100.00
12178;BME280;6152;48.728;9.256;2024-01-10T01:54:36;97835.09;;;-4.78;100.00
12178;BME280;6152;48.728;9.256;2024-01-10T01:57:03;97833.34;;;-4.82;100.00
12178;BME280;6152;48.728;9.256;2024-01-10T01:59:29;97831.69;;;-4.81;100.00
12178;BME280;6152;48.728;9.256;2024-01-10T02:01:55;97835.06;;;-4.81;100.00
12178;BME280;6152;48.728;9.256;2024-01-10T02:04:23;97835.91;;;-4.83;100.00
12178;BME280;6152;48.728;9.256;2024-01-10T02:06:49;97835.03;;;-4.84;100.00
12178;BME280;6152;48.728;9.256;2024-01-10T02:09:16;97835.00;;;-4.87;100.00
12178;BME280;6152;48.728;9.256;2024-01-10T02:11:42;97833.28;;;-4.91;100.00
12178;BME280;6152;48.728;9.256;2024-01-10T02:14:09;97836.63;;;-4.92;100.00
12178;BME280;6152;48.728;9.256;2024-01-10T02:16:36;97826.47;;;-4.92;100.00
12178;BME280;6152;48.728;9.256;2024-01-10T02:19:16;97834.03;;;-4.96;100.00
12178;BME280;6152;48.728;9.256;2024-01-10T02:21:42;97824.66;;;-5.02;100.00
12178;BME280;6152;48.728;9.256;2024-01-10T02:24:08;97824.66;;;-5.02;100.00
12178;BME280;6152;48.728;9.256;2024-01-10T02:26:34;97827.22;;;-5.03;100.00
12178;BME280;6152;48.728;9.256;2024-01-10T02:29:01;97822.97;;;-5.03;100.00
12178;BME280;6152;48.728;9.256;2024-01-10T02:31:27;97817.88;;;-5.03;100.00
12178;BME280;6152;48.728;9.256;2024-01-10T02:33:53;97814.50;;;-5.05;100.00
12178;BME280;6152;48.728;9.256;2024-01-10T02:36:19;97817.88;;;-5.03;100.00
12178;BME280;6152;48.728;9.256;2024-01-10T02:38:45;97817.88;;;-5.04;100.00
12178;BME280;6152;48.728;9.256;2024-01-10T02:41:11;97811.09;;;-5.07;100.00
12178;BME280;6152;48.728;9.256;2024-01-10T02:43:37;97815.31;;;-5.06;100.00
12178;BME280;6152;48.728;9.256;2024-01-10T02:46:03;97812.81;;;-5.04;100.00
12178;BME280;6152;48.728;9.256;2024-01-10T02:48:29;97815.31;;;-5.06;100.00
12178;BME280;6152;48.728;9.256;2024-01-10T02:50:56;97810.28;;;-5.04;100.00
12178;BME280;6152;48.728;9.256;2024-01-10T02:53:22;97816.22;;;-5.01;100.00
12178;BME280;6152;48.728;9.256;2024-01-10T02:55:48;97818.81;;;-4.96;100.00
12178;BME280;6152;48.728;9.256;2024-01-10T02:58:15;97806.16;;;-4.95;100.00
12178;BME280;6152;48.728;9.256;2024-01-10T03:00:41;97811.25;;;-4.93;100.00
12178;BME280;6152;48.728;9.256;2024-01-10T03:03:07;97802.00;;;-4.90;100.00
12178;BME280;6152;48.728;9.256;2024-01-10T03:05:33;97800.28;;;-4.89;100.00
12178;BME280;6152;48.728;9.256;2024-01-10T03:08:00;97796.94;;;-4.87;100.00
12178;BME280;6152;48.728;9.256;2024-01-10T03:10:28;97794.41;;;-4.85;100.00
12178;BME280;6152;48.728;9.256;2024-01-10T03:12:54;97802.94;;;-4.80;100.00
12178;BME280;6152;48.728;9.256;2024-01-10T03:15:20;97800.38;;;-4.79;100.00
12178;BME280;6152;48.728;9.256;2024-01-10T03:17:47;97797.94;;;-4.73;100.00
12178;BME280;6152;48.728;9.256;2024-01-10T03:20:13;97795.44;;;-4.70;100.00
12178;BME280;6152;48.728;9.256;2024-01-10T03:22:39;97796.28;;;-4.68;100.00
12178;BME280;6152;48.728;9.256;2024-01-10T03:25:05;97791.22;;;-4.66;100.00
12178;BME280;6152;48.728;9.256;2024-01-10T03:27:31;97788.69;;;-4.65;100.00
12178;BME280;6152;48.728;9.256;2024-01-10T03:29:57;97787.88;;;-4.61;100.00
12178;BME280;6152;48.728;9.256;2024-01-10T03:32:24;97785.38;;;-4.57;100.00
12178;BME280;6152;48.728;9.256;2024-01-10T03:34:50;97781.16;;;-4.58;100.00
12178;BME280;6152;48.728;9.256;2024-01-10T03:37:17;97781.94;;;-4.61;100.00
12178;BME280;6152;48.728;9.256;2024-01-10T03:39:44;97783.63;;;-4.63;100.00
12178;BME280;6152;48.728;9.256;2024-01-10T03:42:10;97787.03;;;-4.63;100.00
12178;BME280;6152;48.728;9.256;2024-01-10T03:44:37;97786.16;;;-4.62;100.00
12178;BME280;6152;48.728;9.256;2024-01-10T03:47:03;97779.47;;;-4.56;100.00
12178;BME280;6152;48.728;9.256;2024-01-10T03:49:29;97784.53;;;-4.56;100.00
12178;BME280;6152;48.728;9.256;2024-01-10T03:51:55;97786.28;;;-4.52;100.00
12178;BME280;6152;48.728;9.256;2024-01-10T03:54:21;97784.63;;;-4.47;100.00
12178;BME280;6152;48.728;9.256;2024-01-10T03:56:47;97787.16;;;-4.47;100.00
12178;BME280;6152;48.728;9.256;2024-01-10T03:59:13;97787.97;;;-4.51;100.00
12178;BME280;6152;48.728;9.256;2024-01-10T04:01:39;97782.88;;;-4.51;100.00
12178;BME280;6152;48.728;9.256;2024-01-10T04:04:05;97793.03;;;-4.51;100.00
12178;BME280;6152;48.728;9.256;2024-01-10T04:06:31;97792.22;;;-4.50;100.00
12178;BME280;6152;48.728;9.256;2024-01-10T04:08:58;97793.03;;;-4.51;100.00
12178;BME280;6152;48.728;9.256;2024-01-10T04:11:24;97790.50;;;-4.53;100.00
12178;BME280;6152;48.728;9.256;2024-01-10T04:13:50;97787.94;;;-4.54;100.00
12178;BME280;6152;48.728;9.256;2024-01-10T04:16:16;97795.59;;;-4.53;100.00
12178;BME280;6152;48.728;9.256;2024-01-10T04:18:42;97798.09;;;-4.54;100.00
12178;BME280;6152;48.728;9.256;2024-01-10T04:21:08;97804.03;;;-4.54;100.00
12178;BME280;6152;48.728;9.256;2024-01-10T04:23:34;97798.06;;;-4.57;100.00
12178;BME280;6152;48.728;9.256;2024-01-10T04:26:01;97803.97;;;-4.60;100.00
12178;BME280;6152;48.728;9.256;2024-01-10T04:28:28;97806.53;;;-4.58;100.00
12178;BME280;6152;48.728;9.256;2024-01-10T04:30:55;97792.97;;;-4.61;100.00
12178;BME280;6152;48.728;9.256;2024-01-10T04:33:21;97797.19;;;-4.63;100.00
12178;BME280;6152;48.728;9.256;2024-01-10T04:35:47;97795.44;;;-4.65;100.00
12178;BME280;6152;48.728;9.256;2024-01-10T04:38:13;97792.94;;;-4.64;100.00
12178;BME280;6152;48.728;9.256;2024-01-10T04:40:39;97788.66;;;-4.68;100.00
12178;BME280;6152;48.728;9.256;2024-01-10T04:43:05;97786.97;;;-4.67;100.00
12178;BME280;6152;48.728;9.256;2024-01-10T04:45:31;97782.75;;;-4.67;100.00
12178;BME280;6152;48.728;9.256;2024-01-10T04:47:57;97789.53;;;-4.66;100.00
12178;BME280;6152;48.728;9.256;2024-01-10T04:50:23;97781.94;;;-4.64;100.00
12178;BME280;6152;48.728;9.256;2024-01-10T04:52:49;97784.47;;;-4.66;100.00
12178;BME280;6152;48.728;9.256;2024-01-10T04:55:15;97780.22;;;-4.65;100.00
12178;BME280;6152;48.728;9.256;2024-01-10T04:57:42;97781.03;;;-4.68;100.00
12178;BME280;6152;48.728;9.256;2024-01-10T05:00:08;97787.84;;;-4.65;100.00
12178;BME280;6152;48.728;9.256;2024-01-10T05:02:34;97785.25;;;-4.73;100.00
12178;BME280;6152;48.728;9.256;2024-01-10T05:05:01;97782.63;;;-4.79;100.00
12178;BME280;6152;48.728;9.256;2024-01-10T05:07:27;97795.34;;;-4.77;100.00
12178;BME280;6152;48.728;9.256;2024-01-10T05:09:53;97783.44;;;-4.83;100.00
12178;BME280;6152;48.728;9.256;2024-01-10T05:12:19;97794.44;;;-4.84;100.00
12178;BME280;6152;48.728;9.256;2024-01-10T05:14:45;97794.41;;;-4.87;100.00
12178;BME280;6152;48.728;9.256;2024-01-10T05:17:11;97795.19;;;-4.89;100.00
12178;BME280;6152;48.728;9.256;2024-01-10T05:19:37;97799.38;;;-4.94;100.00
12178;BME280;6152;48.728;9.256;2024-01-10T05:22:03;97795.13;;;-4.95;100.00
12178;BME280;6152;48.728;9.256;2024-01-10T05:24:30;97789.19;;;-4.99;100.00
12178;BME280;6152;48.728;9.256;2024-01-10T05:26:56;97797.56;;;-5.06;100.00
12178;BME280;6152;48.728;9.256;2024-01-10T05:29:23;97795.84;;;-5.08;100.00
12178;BME280;6152;48.728;9.256;2024-01-10T05:31:51;97790.75;;;-5.10;100.00
12178;BME280;6152;48.728;9.256;2024-01-10T05:34:17;97789.06;;;-5.11;100.00
12178;BME280;6152;48.728;9.256;2024-01-10T05:36:43;97795.81;;;-5.10;100.00
12178;BME280;6152;48.728;9.256;2024-01-10T05:39:09;97802.56;;;-5.12;100.00
12178;BME280;6152;48.728;9.256;2024-01-10T05:41:35;97794.91;;;-5.17;100.00
12178;BME280;6152;48.728;9.256;2024-01-10T05:44:01;97799.13;;;-5.19;100.00
12178;BME280;6152;48.728;9.256;2024-01-10T05:46:30;97795.72;;;-5.19;100.00
12178;BME280;6152;48.728;9.256;2024-01-10T05:48:56;97795.72;;;-5.19;100.00
12178;BME280;6152;48.728;9.256;2024-01-10T05:51:23;97799.16;;;-5.17;100.00
12178;BME280;6152;48.728;9.256;2024-01-10T05:53:49;97799.16;;;-5.17;100.00
12178;BME280;6152;48.728;9.256;2024-01-10T05:56:15;97800.81;;;-5.16;100.00
12178;BME280;6152;48.728;9.256;2024-01-10T05:58:41;97801.72;;;-5.14;100.00
12178;BME280;6152;48.728;9.256;2024-01-10T06:01:07;97802.50;;;-5.17;100.00
12178;BME280;6152;48.728;9.256;2024-01-10T06:03:36;97802.47;;;-5.21;100.00
12178;BME280;6152;48.728;9.256;2024-01-10T06:06:02;97793.94;;;-5.26;100.00
12178;BME280;6152;48.728;9.256;2024-01-10T06:08:30;97799.00;;;-5.26;100.00
12178;BME280;6152;48.728;9.256;2024-01-10T06:10:56;97799.00;;;-5.26;100.00
12178;BME280;6152;48.728;9.256;2024-01-10T06:13:22;97793.94;;;-5.26;100.00
12178;BME280;6152;48.728;9.256;2024-01-10T06:15:48;97789.69;;;-5.29;100.00
12178;BME280;6152;48.728;9.256;2024-01-10T06:18:14;97797.31;;;-5.27;100.00
12178;BME280;6152;48.728;9.256;2024-01-10T06:20:41;97797.31;;;-5.27;100.00
12178;BME280;6152;48.728;9.256;2024-01-10T06:23:07;97802.34;;;-5.32;100.00
12178;BME280;6152;48.728;9.256;2024-01-10T06:25:34;97803.16;;;-5.33;100.00
12178;BME280;6152;48.728;9.256;2024-01-10T06:28:00;97810.75;;;-5.34;100.00
12178;BME280;6152;48.728;9.256;2024-01-10T06:30:26;97806.50;;;-5.37;100.00
12178;BME280;6152;48.728;9.256;2024-01-10T06:32:52;97818.31;;;-5.39;100.00
12178;BME280;6152;48.728;9.256;2024-01-10T06:35:18;97822.53;;;-5.39;100.00
12178;BME280;6152;48.728;9.256;2024-01-10T06:37:44;97817.44;;;-5.39;100.00
12178;BME280;6152;48.728;9.256;2024-01-10T06:40:11;97810.66;;;-5.40;100.00
12178;BME280;6152;48.728;9.256;2024-01-10T06:42:37;97809.78;;;-5.45;100.00
12178;BME280;6152;48.728;9.256;2024-01-10T06:45:05;97813.91;;;-5.50;100.00
12178;BME280;6152;48.728;9.256;2024-01-10T06:47:33;97812.22;;;-5.51;100.00
12178;BME280;6152;48.728;9.256;2024-01-10T06:49:59;97810.50;;;-5.55;100.00
12178;BME280;6152;48.728;9.256;2024-01-10T06:52:25;97810.50;;;-5.55;100.00
12178;BME280;6152;48.728;9.256;2024-01-10T06:54:52;97810.44;;;-5.58;100.00
12178;BME280;6152;48.728;9.256;2024-01-10T06:57:18;97815.53;;;-5.58;100.00
12178;BME280;6152;48.728;9.256;2024-01-10T06:59:44;97815.53;;;-5.57;100.00
12178;BME280;6152;48.728;9.256;2024-01-10T07:02:10;97813.84;;;-5.56;100.00
12178;BME280;6152;48.728;9.256;2024-01-10T07:04:39;97821.41;;;-5.58;100.00
12178;BME280;6152;48.728;9.256;2024-01-10T07:07:05;97817.97;;;-5.62;100.00
12178;BME280;6152;48.728;9.256;2024-01-10T07:09:34;97817.13;;;-5.64;100.00
12178;BME280;6152;48.728;9.256;2024-01-10T07:12:00;97823.00;;;-5.65;100.00
12178;BME280;6152;48.728;9.256;2024-01-10T07:14:26;97828.09;;;-5.66;100.00
12178;BME280;6152;48.728;9.256;2024-01-10T07:16:52;97831.47;;;-5.66;100.00
12178;BME280;6152;48.728;9.256;2024-01-10T07:19:19;97833.16;;;-5.66;100.00
12178;BME280;6152;48.728;9.256;2024-01-10T07:21:45;97833.16;;;-5.66;100.00
12178;BME280;6152;48.728;9.256;2024-01-10T07:24:11;97834.94;;;-5.59;100.00
12178;BME280;6152;48.728;9.256;2024-01-10T07:26:38;97835.81;;;-5.58;100.00
12178;BME280;6152;48.728;9.256;2024-01-10T07:29:04;97830.72;;;-5.58;100.00
12178;BME280;6152;48.728;9.256;2024-01-10T07:31:34;97847.63;;;-5.57;100.00
12178;BME280;6152;48.728;9.256;2024-01-10T07:34:00;97849.41;;;-5.50;100.00
12178;BME280;6152;48.728;9.256;2024-01-10T07:36:26;97841.84;;;-5.49;100.00
12178;BME280;6152;48.728;9.256;2024-01-10T07:38:53;97846.09;;;-5.46;100.00
12178;BME280;6152;48.728;9.256;2024-01-10T07:41:19;97847.84;;;-5.42;100.00
12178;BME280;6152;48.728;9.256;2024-01-10T07:43:46;97838.59;;;-5.39;100.00
12178;BME280;6152;48.728;9.256;2024-01-10T07:46:12;97848.78;;;-5.34;100.00
12178;BME280;6152;48.728;9.256;2024-01-10T07:48:38;97846.38;;;-5.25;100.00
12178;BME280;6152;48.728;9.256;2024-01-10T07:51:04;97844.69;;;-5.23;100.00
12178;BME280;6152;48.728;9.256;2024-01-10T07:53:31;97853.28;;;-5.15;100.00
12178;BME280;6152;48.728;9.256;2024-01-10T07:55:57;97861.78;;;-5.10;100.00
12178;BME280;6152;48.728;9.256;2024-01-10T07:58:23;97861.06;;;-5.01;100.00
12178;BME280;6152;48.728;9.256;2024-01-10T08:00:49;97863.75;;;-4.88;100.00
12178;BME280;6152;48.728;9.256;2024-01-10T08:03:15;97864.69;;;-4.78;100.00
12178;BME280;6152;48.728;9.256;2024-01-10T08:05:41;97871.59;;;-4.68;100.00
12178;BME280;6152;48.728;9.256;2024-01-10T08:08:07;97869.19;;;-4.54;100.00
12178;BME280;6152;48.728;9.256;2024-01-10T08:10:35;97875.25;;;-4.45;100.00
12178;BME280;6152;48.728;9.256;2024-01-10T08:13:01;97879.50;;;-4.42;100.00
12178;BME280;6152;48.728;9.256;2024-01-10T08:15:27;97880.47;;;-4.27;100.00
12178;BME280;6152;48.728;9.256;2024-01-10T08:17:56;97884.84;;;-4.12;100.00
12178;BME280;6152;48.728;9.256;2024-01-10T08:20:22;97889.19;;;-4.02;100.00
12178;BME280;6152;48.728;9.256;2024-01-10T08:22:48;97881.69;;;-3.87;100.00
12178;BME280;6152;48.728;9.256;2024-01-10T08:25:14;97883.53;;;-3.69;100.00
12178;BME280;6152;48.728;9.256;2024-01-10T08:27:41;97885.34;;;-3.51;100.00
12178;BME280;6152;48.728;9.256;2024-01-10T08:30:08;97892.22;;;-3.37;100.00
12178;BME280;6152;48.728;9.256;2024-01-10T08:32:36;97892.31;;;-3.23;100.00
12178;BME280;6152;48.728;9.256;2024-01-10T08:35:03;97882.25;;;-2.99;100.00
12178;BME280;6152;48.728;9.256;2024-01-10T08:37:30;97889.09;;;-2.89;100.00
12178;BME280;6152;48.728;9.256;2024-01-10T08:39:58;97885.69;;;-2.94;100.00
12178;BME280;6152;48.728;9.256;2024-01-10T08:42:24;97892.44;;;-2.96;100.00
12178;BME280;6152;48.728;9.256;2024-01-10T08:44:51;97889.03;;;-3.01;100.00
12178;BME280;6152;48.728;9.256;2024-01-10T08:47:17;97900.88;;;-3.06;100.00
12178;BME280;6152;48.728;9.256;2024-01-10T08:49:43;97912.75;;;-3.11;100.00
12178;BME280;6152;48.728;9.256;2024-01-10T08:52:09;97897.47;;;-3.14;100.00
12178;BME280;6152;48.728;9.256;2024-01-10T08:54:35;97905.91;;;-3.24;100.00
12178;BME280;6152;48.728;9.256;2024-01-10T08:57:01;97905.03;;;-3.25;100.00
12178;BME280;6152;48.728;9.256;2024-01-10T08:59:28;97903.28;;;-3.33;100.00
12178;BME280;6152;48.728;9.256;2024-01-10T09:01:55;97902.59;;;-3.08;100.00
12178;BME280;6152;48.728;9.256;2024-01-10T09:04:21;97906.97;;;-2.75;100.00
12178;BME280;6152;48.728;9.256;2024-01-10T09:06:47;97907.94;;;-2.47;100.00
12178;BME280;6152;48.728;9.256;2024-01-10T09:09:14;97903.72;;;-2.30;100.00
12178;BME280;6152;48.728;9.256;2024-01-10T09:11:40;97905.44;;;-2.29;100.00
12178;BME280;6152;48.728;9.256;2024-01-10T09:14:06;97906.38;;;-1.97;100.00
12178;BME280;6152;48.728;9.256;2024-01-10T09:16:32;97907.22;;;-1.83;100.00
12178;BME280;6152;48.728;9.256;2024-01-10T09:18:58;97908.94;;;-1.56;100.00
12178;BME280;6152;48.728;9.256;2024-01-10T09:21:26;97904.66;;;-1.40;100.00
12178;BME280;6152;48.728;9.256;2024-01-10T09:23:52;97914.00;;;-1.79;100.00
12178;BME280;6152;48.728;9.256;2024-01-10T09:26:19;97914.84;;;-1.89;100.00
12178;BME280;6152;48.728;9.256;2024-01-10T09:28:45;97920.81;;;-1.88;100.00
12178;BME280;6152;48.728;9.256;2024-01-10T09:31:11;97911.41;;;-2.18;100.00
12178;BME280;6152;48.728;9.256;2024-01-10T09:33:37;97925.84;;;-2.20;100.00
12178;BME280;6152;48.728;9.256;2024-01-10T09:36:03;97930.19;;;-1.65;100.00
12178;BME280;6152;48.728;9.256;2024-01-10T09:38:30;97922.53;;;-1.25;100.00
12178;BME280;6152;48.728;9.256;2024-01-10T09:41:00;97929.31;;;-1.20;93.26
12178;BME280;6152;48.728;9.256;2024-01-10T09:43:30;97925.06;;;-1.07;97.75
12178;BME280;6152;48.728;9.256;2024-01-10T09:45:58;97924.84;;;-0.46;96.26
12178;BME280;6152;48.728;9.256;2024-01-10T09:48:25;97929.72;;;-0.03;84.28
12178;BME280;6152;48.728;9.256;2024-01-10T09:50:52;97927.50;;;0.71;82.10
12178;BME280;6152;48.728;9.256;2024-01-10T09:53:26;97927.75;;;1.29;79.07
12178;BME280;6152;48.728;9.256;2024-01-10T09:55:53;97921.97;;;1.85;71.44
12178;BME280;6152;48.728;9.256;2024-01-10T09:58:25;97927.47;;;2.20;69.33
12178;BME280;6152;48.728;9.256;2024-01-10T10:00:52;97922.75;;;2.97;67.97
12178;BME280;6152;48.728;9.256;2024-01-10T10:03:18;97926.19;;;2.47;60.34
12178;BME280;6152;48.728;9.256;2024-01-10T10:05:45;97918.00;;;2.21;61.57
12178;BME280;6152;48.728;9.256;2024-01-10T10:08:12;97914.00;;;3.07;60.73
12178;BME280;6152;48.728;9.256;2024-01-10T10:10:43;97913.41;;;2.42;58.88
12178;BME280;6152;48.728;9.256;2024-01-10T10:13:11;97918.34;;;1.99;59.34
12178;BME280;6152;48.728;9.256;2024-01-10T10:15:58;97914.56;;;2.23;58.86
12178;BME280;6152;48.728;9.256;2024-01-10T10:18:25;97903.06;;;2.97;58.50
12178;BME280;6152;48.728;9.256;2024-01-10T10:23:33;97900.84;;;4.79;55.53
12178;BME280;6152;48.728;9.256;2024-01-10T10:26:02;97898.25;;;5.43;51.79
12178;BME280;6152;48.728;9.256;2024-01-10T10:28:35;97894.72;;;5.77;50.22
12178;BME280;6152;48.728;9.256;2024-01-10T10:31:02;97891.25;;;7.61;48.15
12178;BME280;6152;48.728;9.256;2024-01-10T10:33:30;97891.16;;;8.33;43.54
12178;BME280;6152;48.728;9.256;2024-01-10T10:35:57;97883.22;;;6.70;44.36
12178;BME280;6152;48.728;9.256;2024-01-10T10:38:23;97887.16;;;8.68;44.40
12178;BME280;6152;48.728;9.256;2024-01-10T10:40:50;97892.84;;;9.95;41.78
12178;BME280;6152;48.728;9.256;2024-01-10T10:43:19;97882.84;;;10.42;39.54
12178;BME280;6152;48.728;9.256;2024-01-10T10:45:48;97885.72;;;8.60;40.17
12178;BME280;6152;48.728;9.256;2024-01-10T10:48:18;97895.75;;;9.50;38.79
12178;BME280;6152;48.728;9.256;2024-01-10T10:51:16;97892.75;;;6.94;42.01
12178;BME280;6152;48.728;9.256;2024-01-10T10:53:43;97889.78;;;7.54;42.60
12178;BME280;6152;48.728;9.256;2024-01-10T10:56:12;97881.50;;;9.20;41.24
12178;BME280;6152;48.728;9.256;2024-01-10T10:58:44;97883.53;;;8.28;39.87
12178;BME280;6152;48.728;9.256;2024-01-10T11:01:12;97885.13;;;7.39;41.64
12178;BME280;6152;48.728;9.256;2024-01-10T11:03:40;97887.75;;;6.64;43.20
12178;BME280;6152;48.728;9.256;2024-01-10T11:06:08;97894.03;;;5.72;44.87
12178;BME280;6152;48.728;9.256;2024-01-10T11:08:45;97887.84;;;6.60;43.90
12178;BME280;6152;48.728;9.256;2024-01-10T11:20:17;97878.16;;;6.13;46.77
12178;BME280;6152;48.728;9.256;2024-01-10T11:25:35;97886.59;;;8.16;40.98
12178;BME280;6152;48.728;9.256;2024-01-10T11:28:05;97889.63;;;7.82;41.90
12178;BME280;6152;48.728;9.256;2024-01-10T11:30:53;97879.88;;;8.76;40.72
12178;BME280;6152;48.728;9.256;2024-01-10T11:41:32;97887.16;;;11.63;37.27
12178;BME280;6152;48.728;9.256;2024-01-10T11:46:49;97866.66;;;12.06;34.87
12178;BME280;6152;48.728;9.256;2024-01-10T11:49:18;97866.59;;;10.20;36.25
12178;BME280;6152;48.728;9.256;2024-01-10T11:51:49;97865.28;;;9.73;36.67
12178;BME280;6152;48.728;9.256;2024-01-10T11:59:35;97854.34;;;12.39;35.01
12178;BME280;6152;48.728;9.256;2024-01-10T12:02:03;97858.78;;;12.83;33.54
12178;BME280;6152;48.728;9.256;2024-01-10T12:04:33;97864.22;;;13.82;32.88
12178;BME280;6152;48.728;9.256;2024-01-10T12:07:03;97865.41;;;13.76;32.41
12178;BME280;6152;48.728;9.256;2024-01-10T12:09:31;97862.34;;;14.92;30.54
12178;BME280;6152;48.728;9.256;2024-01-10T12:11:58;97857.94;;;15.57;30.46
12178;BME280;6152;48.728;9.256;2024-01-10T12:14:24;97852.13;;;14.48;29.93
12178;BME280;6152;48.728;9.256;2024-01-10T12:16:54;97854.00;;;14.73;29.92
12178;BME280;6152;48.728;9.256;2024-01-10T12:19:20;97855.63;;;14.88;30.33
12178;BME280;6152;48.728;9.256;2024-01-10T12:21:46;97853.97;;;15.64;29.72
12178;BME280;6152;48.728;9.256;2024-01-10T12:24:13;97855.81;;;15.62;28.93
12178;BME280;6152;48.728;9.256;2024-01-10T12:26:47;97841.81;;;16.00;29.08
12178;BME280;6152;48.728;9.256;2024-01-10T12:29:16;97838.97;;;16.39;28.63
12178;BME280;6152;48.728;9.256;2024-01-10T12:31:43;97850.88;;;16.32;28.01
12178;BME280;6152;48.728;9.256;2024-01-10T12:34:11;97846.28;;;15.74;28.15
12178;BME280;6152;48.728;9.256;2024-01-10T12:36:38;97839.88;;;16.51;28.22
12178;BME280;6152;48.728;9.256;2024-01-10T12:39:04;97840.94;;;16.61;27.86
12178;BME280;6152;48.728;9.256;2024-01-10T12:41:33;97849.88;;;15.60;27.94
12178;BME280;6152;48.728;9.256;2024-01-10T12:44:01;97838.72;;;15.44;28.90
12178;BME280;6152;48.728;9.256;2024-01-10T12:46:31;97834.19;;;15.46;28.22
12178;BME280;6152;48.728;9.256;2024-01-10T12:49:04;97837.16;;;15.67;28.56
12178;BME280;6152;48.728;9.256;2024-01-10T12:51:34;97834.03;;;16.11;28.57
12178;BME280;6152;48.728;9.256;2024-01-10T12:54:03;97829.56;;;16.60;28.06
12178;BME280;6152;48.728;9.256;2024-01-10T12:56:30;97832.50;;;16.80;27.31
12178;BME280;6152;48.728;9.256;2024-01-10T12:58:56;97830.81;;;17.02;26.83
12178;BME280;6152;48.728;9.256;2024-01-10T13:01:24;97827.50;;;17.23;26.77
12178;BME280;6152;48.728;9.256;2024-01-10T13:03:50;97832.00;;;18.11;26.10
12178;BME280;6152;48.728;9.256;2024-01-10T13:06:17;97828.91;;;17.73;26.28
12178;BME280;6152;48.728;9.256;2024-01-10T13:08:45;97829.56;;;17.52;26.09
12178;BME280;6152;48.728;9.256;2024-01-10T13:11:12;97826.41;;;17.14;26.94
12178;BME280;6152;48.728;9.256;2024-01-10T13:13:40;97823.78;;;17.25;26.46
12178;BME280;6152;48.728;9.256;2024-01-10T13:16:07;97819.91;;;16.96;26.62
12178;BME280;6152;48.728;9.256;2024-01-10T13:18:33;97817.38;;;16.94;26.70
12178;BME280;6152;48.728;9.256;2024-01-10T13:20:59;97819.06;;;16.95;26.44
12178;BME280;6152;48.728;9.256;2024-01-10T13:23:25;97815.16;;;16.30;26.98
12178;BME280;6152;48.728;9.256;2024-01-10T13:25:51;97821.97;;;16.08;27.17
12178;BME280;6152;48.728;9.256;2024-01-10T13:28:20;97816.66;;;15.22;28.00
12178;BME280;6152;48.728;9.256;2024-01-10T13:30:46;97812.97;;;14.99;28.40
12178;BME280;6152;48.728;9.256;2024-01-10T13:33:13;97821.00;;;14.71;28.64